sensor_id;sensor_type;location;lat;lon;timestamp;P1;durP1;ratioP1;P2;durP2;ratioP2
17739;SDS011;8990;33.226;-97.150;2023-03-01T00:01:58;0.08;;;0.08;;
17739;SDS011;8990;33.226;-97.150;2023-03-01T00:04:27;0.00;;;0.00;;
17739;SDS011;8990;33.226;-97.150;2023-03-01T00:06:56;0.08;;;0.08;;
17739;SDS011;8990;33.226;-97.150;2023-03-01T00:09:27;0.38;;;0.38;;
17739;SDS011;8990;33.226;-97.150;2023-03-01T00:11:56;0.00;;;0.00;;
17739;SDS011;8990;33.226;-97.150;2023-03-01T00:14:24;0.73;;;0.57;;
17739;SDS011;8990;33.226;-97.150;2023-03-01T00:16:54;0.00;;;0.00;;
17739;SDS011;8990;33.226;-97.150;2023-03-01T00:19:22;0.20;;;0.20;;
17739;SDS011;8990;33.226;-97.150;2023-03-01T00:21:51;3.38;;;0.30;;
17739;SDS011;8990;33.226;-97.150;2023-03-01T00:24:20;0.13;;;0.13;;
17739;SDS011;8990;33.226;-97.150;2023-03-01T00:26:54;0.00;;;0.00;;
17739;SDS011;8990;33.226;-97.150;2023-03-01T00:29:23;0.20;;;0.20;;
17739;SDS011;8990;33.226;-97.150;2023-03-01T00:31:53;0.00;;;0.00;;
17739;SDS011;8990;33.226;-97.150;2023-03-01T00:34:22;0.00;;;0.00;;
17739;SDS011;8990;33.226;-97.150;2023-03-01T00:36:51;0.00;;;0.00;;
17739;SDS011;8990;33.226;-97.150;2023-03-01T00:39:20;0.40;;;0.30;;
17739;SDS011;8990;33.226;-97.150;2023-03-01T00:41:50;0.00;;;0.00;;
17739;SDS011;8990;33.226;-97.150;2023-03-01T00:44:21;0.60;;;0.32;;
17739;SDS011;8990;33.226;-97.150;2023-03-01T00:46:50;0.05;;;0.05;;
17739;SDS011;8990;33.226;-97.150;2023-03-01T00:49:19;0.05;;;0.05;;
17739;SDS011;8990;33.226;-97.150;2023-03-01T00:51:50;2.95;;;0.68;;
17739;SDS011;8990;33.226;-97.150;2023-03-01T00:54:19;0.10;;;0.10;;
17739;SDS011;8990;33.226;-97.150;2023-03-01T00:56:48;0.00;;;0.00;;
17739;SDS011;8990;33.226;-97.150;2023-03-01T00:59:17;0.00;;;0.00;;
17739;SDS011;8990;33.226;-97.150;2023-03-01T01:01:48;0.28;;;0.28;;
17739;SDS011;8990;33.226;-97.150;2023-03-01T01:04:17;0.00;;;0.00;;
17739;SDS011;8990;33.226;-97.150;2023-03-01T01:06:46;0.00;;;0.00;;
17739;SDS011;8990;33.226;-97.150;2023-03-01T01:09:16;0.00;;;0.00;;
17739;SDS011;8990;33.226;-97.150;2023-03-01T01:11:46;0.22;;;0.22;;
17739;SDS011;8990;33.226;-97.150;2023-03-01T01:14:17;0.28;;;0.00;;
17739;SDS011;8990;33.226;-97.150;2023-03-01T01:16:49;0.00;;;0.00;;
17739;SDS011;8990;33.226;-97.150;2023-03-01T01:19:18;0.10;;;0.10;;
17739;SDS011;8990;33.226;-97.150;2023-03-01T01:21:47;0.00;;;0.00;;
17739;SDS011;8990;33.226;-97.150;2023-03-01T01:24:18;0.20;;;0.20;;
17739;SDS011;8990;33.226;-97.150;2023-03-01T01:26:47;0.10;;;0.10;;
17739;SDS011;8990;33.226;-97.150;2023-03-01T01:29:16;0.32;;;0.32;;
17739;SDS011;8990;33.226;-97.150;2023-03-01T01:31:46;0.00;;;0.00;;
17739;SDS011;8990;33.226;-97.150;2023-03-01T01:34:17;0.00;;;0.00;;
17739;SDS011;8990;33.226;-97.150;2023-03-01T01:36:49;0.10;;;0.10;;
17739;SDS011;8990;33.226;-97.150;2023-03-01T01:39:19;0.10;;;0.10;;
17739;SDS011;8990;33.226;-97.150;2023-03-01T01:41:49;0.80;;;0.80;;
17739;SDS011;8990;33.226;-97.150;2023-03-01T01:44:20;0.38;;;0.38;;
17739;SDS011;8990;33.226;-97.150;2023-03-01T01:46:51;0.22;;;0.22;;
17739;SDS011;8990;33.226;-97.150;2023-03-01T01:49:27;0.15;;;0.15;;
17739;SDS011;8990;33.226;-97.150;2023-03-01T01:52:01;0.17;;;0.17;;
17739;SDS011;8990;33.226;-97.150;2023-03-01T01:54:37;0.10;;;0.10;;
17739;SDS011;8990;33.226;-97.150;2023-03-01T01:57:12;0.13;;;0.13;;
17739;SDS011;8990;33.226;-97.150;2023-03-01T01:59:45;0.15;;;0.15;;
17739;SDS011;8990;33.226;-97.150;2023-03-01T02:02:18;0.30;;;0.30;;
17739;SDS011;8990;33.226;-97.150;2023-03-01T02:04:49;0.20;;;0.20;;
17739;SDS011;8990;33.226;-97.150;2023-03-01T02:07:26;0.40;;;0.40;;
17739;SDS011;8990;33.226;-97.150;2023-03-01T02:09:56;0.08;;;0.08;;
17739;SDS011;8990;33.226;-97.150;2023-03-01T02:12:26;0.00;;;0.00;;
17739;SDS011;8990;33.226;-97.150;2023-03-01T02:14:55;0.03;;;0.03;;
17739;SDS011;8990;33.226;-97.150;2023-03-01T02:17:24;0.10;;;0.10;;
17739;SDS011;8990;33.226;-97.150;2023-03-01T02:20:02;0.32;;;0.32;;
17739;SDS011;8990;33.226;-97.150;2023-03-01T02:22:37;0.10;;;0.10;;
17739;SDS011;8990;33.226;-97.150;2023-03-01T02:25:08;0.20;;;0.20;;
17739;SDS011;8990;33.226;-97.150;2023-03-01T02:27:52;0.20;;;0.20;;
17739;SDS011;8990;33.226;-97.150;2023-03-01T02:30:28;0.17;;;0.17;;
17739;SDS011;8990;33.226;-97.150;2023-03-01T02:32:57;0.40;;;0.40;;
17739;SDS011;8990;33.226;-97.150;2023-03-01T02:35:32;0.10;;;0.10;;
17739;SDS011;8990;33.226;-97.150;2023-03-01T02:38:05;0.63;;;0.35;;
17739;SDS011;8990;33.226;-97.150;2023-03-01T02:40:37;0.05;;;0.05;;
17739;SDS011;8990;33.226;-97.150;2023-03-01T02:43:08;0.20;;;0.20;;
17739;SDS011;8990;33.226;-97.150;2023-03-01T02:45:47;0.08;;;0.08;;
17739;SDS011;8990;33.226;-97.150;2023-03-01T02:48:17;1.08;;;0.55;;
17739;SDS011;8990;33.226;-97.150;2023-03-01T02:50:52;11.43;;;1.65;;
17739;SDS011;8990;33.226;-97.150;2023-03-01T02:53:34;0.10;;;0.10;;
17739;SDS011;8990;33.226;-97.150;2023-03-01T02:56:10;2.95;;;0.45;;
17739;SDS011;8990;33.226;-97.150;2023-03-01T02:58:40;0.40;;;0.40;;
17739;SDS011;8990;33.226;-97.150;2023-03-01T03:01:19;0.15;;;0.15;;
17739;SDS011;8990;33.226;-97.150;2023-03-01T03:03:48;0.25;;;0.25;;
17739;SDS011;8990;33.226;-97.150;2023-03-01T03:06:18;0.10;;;0.10;;
17739;SDS011;8990;33.226;-97.150;2023-03-01T03:08:47;0.60;;;0.60;;
17739;SDS011;8990;33.226;-97.150;2023-03-01T03:11:15;1.48;;;0.52;;
17739;SDS011;8990;33.226;-97.150;2023-03-01T03:13:45;0.15;;;0.15;;
17739;SDS011;8990;33.226;-97.150;2023-03-01T03:16:15;1.60;;;0.98;;
17739;SDS011;8990;33.226;-97.150;2023-03-01T03:18:46;0.13;;;0.13;;
17739;SDS011;8990;33.226;-97.150;2023-03-01T03:21:15;0.40;;;0.40;;
17739;SDS011;8990;33.226;-97.150;2023-03-01T03:23:44;0.20;;;0.20;;
17739;SDS011;8990;33.226;-97.150;2023-03-01T03:26:13;0.00;;;0.00;;
17739;SDS011;8990;33.226;-97.150;2023-03-01T03:28:43;0.10;;;0.10;;
17739;SDS011;8990;33.226;-97.150;2023-03-01T03:31:12;0.35;;;0.35;;
17739;SDS011;8990;33.226;-97.150;2023-03-01T03:33:41;0.10;;;0.10;;
17739;SDS011;8990;33.226;-97.150;2023-03-01T03:36:16;0.10;;;0.10;;
17739;SDS011;8990;33.226;-97.150;2023-03-01T03:38:46;0.10;;;0.10;;
17739;SDS011;8990;33.226;-97.150;2023-03-01T03:41:16;0.20;;;0.20;;
17739;SDS011;8990;33.226;-97.150;2023-03-01T03:43:46;0.15;;;0.15;;
17739;SDS011;8990;33.226;-97.150;2023-03-01T03:46:15;2.00;;;0.88;;
17739;SDS011;8990;33.226;-97.150;2023-03-01T03:48:44;13.57;;;0.43;;
17739;SDS011;8990;33.226;-97.150;2023-03-01T03:51:17;0.30;;;0.30;;
17739;SDS011;8990;33.226;-97.150;2023-03-01T03:53:49;0.32;;;0.25;;
17739;SDS011;8990;33.226;-97.150;2023-03-01T03:56:18;0.60;;;0.52;;
17739;SDS011;8990;33.226;-97.150;2023-03-01T03:58:51;0.40;;;0.40;;
17739;SDS011;8990;33.226;-97.150;2023-03-01T04:01:20;0.20;;;0.13;;
17739;SDS011;8990;33.226;-97.150;2023-03-01T04:03:49;0.95;;;0.85;;
17739;SDS011;8990;33.226;-97.150;2023-03-01T04:06:21;1.08;;;0.35;;
17739;SDS011;8990;33.226;-97.150;2023-03-01T04:08:50;0.45;;;0.45;;
17739;SDS011;8990;33.226;-97.150;2023-03-01T04:11:24;0.10;;;0.10;;
17739;SDS011;8990;33.226;-97.150;2023-03-01T04:13:56;0.60;;;0.20;;
17739;SDS011;8990;33.226;-97.150;2023-03-01T04:16:26;0.75;;;0.75;;
17739;SDS011;8990;33.226;-97.150;2023-03-01T04:18:55;0.38;;;0.38;;
17739;SDS011;8990;33.226;-97.150;2023-03-01T04:21:29;0.88;;;0.55;;
17739;SDS011;8990;33.226;-97.150;2023-03-01T04:23:58;0.43;;;0.43;;
17739;SDS011;8990;33.226;-97.150;2023-03-01T04:26:29;0.40;;;0.40;;
17739;SDS011;8990;33.226;-97.150;2023-03-01T04:28:58;0.17;;;0.17;;
17739;SDS011;8990;33.226;-97.150;2023-03-01T04:31:27;1.13;;;1.13;;
17739;SDS011;8990;33.226;-97.150;2023-03-01T04:33:56;1.45;;;0.60;;
17739;SDS011;8990;33.226;-97.150;2023-03-01T04:36:26;7.78;;;0.93;;
17739;SDS011;8990;33.226;-97.150;2023-03-01T04:38:57;0.30;;;0.30;;
17739;SDS011;8990;33.226;-97.150;2023-03-01T04:41:32;0.22;;;0.15;;
17739;SDS011;8990;33.226;-97.150;2023-03-01T04:44:01;0.00;;;0.00;;
17739;SDS011;8990;33.226;-97.150;2023-03-01T04:46:31;4.78;;;0.50;;
17739;SDS011;8990;33.226;-97.150;2023-03-01T04:49:00;0.57;;;0.57;;
17739;SDS011;8990;33.226;-97.150;2023-03-01T04:51:30;0.40;;;0.40;;
17739;SDS011;8990;33.226;-97.150;2023-03-01T04:54:00;0.20;;;0.20;;
17739;SDS011;8990;33.226;-97.150;2023-03-01T04:56:29;0.40;;;0.40;;
17739;SDS011;8990;33.226;-97.150;2023-03-01T04:58:58;1.70;;;0.50;;
17739;SDS011;8990;33.226;-97.150;2023-03-01T05:01:31;0.35;;;0.35;;
17739;SDS011;8990;33.226;-97.150;2023-03-01T05:04:01;0.47;;;0.43;;
17739;SDS011;8990;33.226;-97.150;2023-03-01T05:06:32;2.58;;;1.50;;
17739;SDS011;8990;33.226;-97.150;2023-03-01T05:09:02;0.28;;;0.28;;
17739;SDS011;8990;33.226;-97.150;2023-03-01T05:11:31;0.20;;;0.20;;
17739;SDS011;8990;33.226;-97.150;2023-03-01T05:14:01;0.52;;;0.52;;
17739;SDS011;8990;33.226;-97.150;2023-03-01T05:16:32;1.00;;;0.35;;
17739;SDS011;8990;33.226;-97.150;2023-03-01T05:19:02;0.32;;;0.32;;
17739;SDS011;8990;33.226;-97.150;2023-03-01T05:21:38;0.30;;;0.30;;
17739;SDS011;8990;33.226;-97.150;2023-03-01T05:24:27;1.92;;;1.25;;
17739;SDS011;8990;33.226;-97.150;2023-03-01T05:26:56;2.58;;;1.15;;
17739;SDS011;8990;33.226;-97.150;2023-03-01T05:29:27;0.10;;;0.10;;
17739;SDS011;8990;33.226;-97.150;2023-03-01T05:31:57;0.17;;;0.17;;
17739;SDS011;8990;33.226;-97.150;2023-03-01T05:34:27;0.47;;;0.47;;
17739;SDS011;8990;33.226;-97.150;2023-03-01T05:36:59;5.50;;;1.08;;
17739;SDS011;8990;33.226;-97.150;2023-03-01T05:39:29;0.98;;;0.98;;
17739;SDS011;8990;33.226;-97.150;2023-03-01T05:41:58;1.00;;;0.80;;
17739;SDS011;8990;33.226;-97.150;2023-03-01T05:44:28;0.38;;;0.38;;
17739;SDS011;8990;33.226;-97.150;2023-03-01T05:46:57;0.10;;;0.10;;
17739;SDS011;8990;33.226;-97.150;2023-03-01T05:49:26;0.30;;;0.30;;
17739;SDS011;8990;33.226;-97.150;2023-03-01T05:51:55;0.00;;;0.00;;
17739;SDS011;8990;33.226;-97.150;2023-03-01T05:54:26;0.70;;;0.70;;
17739;SDS011;8990;33.226;-97.150;2023-03-01T05:56:55;0.55;;;0.55;;
17739;SDS011;8990;33.226;-97.150;2023-03-01T05:59:24;0.00;;;0.00;;
17739;SDS011;8990;33.226;-97.150;2023-03-01T06:01:53;0.47;;;0.35;;
17739;SDS011;8990;33.226;-97.150;2023-03-01T06:04:21;1.55;;;1.23;;
17739;SDS011;8990;33.226;-97.150;2023-03-01T06:06:50;0.70;;;0.70;;
17739;SDS011;8990;33.226;-97.150;2023-03-01T06:09:19;0.30;;;0.30;;
17739;SDS011;8990;33.226;-97.150;2023-03-01T06:11:51;0.80;;;0.30;;
17739;SDS011;8990;33.226;-97.150;2023-03-01T06:14:20;0.15;;;0.15;;
17739;SDS011;8990;33.226;-97.150;2023-03-01T06:16:49;0.85;;;0.68;;
17739;SDS011;8990;33.226;-97.150;2023-03-01T06:19:18;0.43;;;0.43;;
17739;SDS011;8990;33.226;-97.150;2023-03-01T06:21:46;0.00;;;0.00;;
17739;SDS011;8990;33.226;-97.150;2023-03-01T06:24:15;0.20;;;0.20;;
17739;SDS011;8990;33.226;-97.150;2023-03-01T06:26:44;2.15;;;1.25;;
17739;SDS011;8990;33.226;-97.150;2023-03-01T06:29:15;0.30;;;0.30;;
17739;SDS011;8990;33.226;-97.150;2023-03-01T06:31:44;2.63;;;0.65;;
17739;SDS011;8990;33.226;-97.150;2023-03-01T06:34:13;0.40;;;0.40;;
17739;SDS011;8990;33.226;-97.150;2023-03-01T06:36:43;0.00;;;0.00;;
17739;SDS011;8990;33.226;-97.150;2023-03-01T06:39:12;0.38;;;0.38;;
17739;SDS011;8990;33.226;-97.150;2023-03-01T06:41:43;0.73;;;0.73;;
17739;SDS011;8990;33.226;-97.150;2023-03-01T06:44:13;2.22;;;0.60;;
17739;SDS011;8990;33.226;-97.150;2023-03-01T06:46:43;3.83;;;1.38;;
17739;SDS011;8990;33.226;-97.150;2023-03-01T06:49:13;1.02;;;0.95;;
17739;SDS011;8990;33.226;-97.150;2023-03-01T06:51:44;0.75;;;0.60;;
17739;SDS011;8990;33.226;-97.150;2023-03-01T06:54:13;0.57;;;0.57;;
17739;SDS011;8990;33.226;-97.150;2023-03-01T06:56:46;0.73;;;0.73;;
17739;SDS011;8990;33.226;-97.150;2023-03-01T06:59:17;0.40;;;0.40;;
17739;SDS011;8990;33.226;-97.150;2023-03-01T07:01:46;5.13;;;1.73;;
17739;SDS011;8990;33.226;-97.150;2023-03-01T07:04:15;0.55;;;0.52;;
17739;SDS011;8990;33.226;-97.150;2023-03-01T07:06:44;0.57;;;0.57;;
17739;SDS011;8990;33.226;-97.150;2023-03-01T07:09:20;0.40;;;0.40;;
17739;SDS011;8990;33.226;-97.150;2023-03-01T07:11:49;0.22;;;0.22;;
17739;SDS011;8990;33.226;-97.150;2023-03-01T07:14:19;0.50;;;0.50;;
17739;SDS011;8990;33.226;-97.150;2023-03-01T07:16:50;7.97;;;0.60;;
17739;SDS011;8990;33.226;-97.150;2023-03-01T07:19:19;0.40;;;0.40;;
17739;SDS011;8990;33.226;-97.150;2023-03-01T07:21:48;0.65;;;0.55;;
17739;SDS011;8990;33.226;-97.150;2023-03-01T07:24:17;0.30;;;0.30;;
17739;SDS011;8990;33.226;-97.150;2023-03-01T07:26:48;0.60;;;0.60;;
17739;SDS011;8990;33.226;-97.150;2023-03-01T07:29:17;0.80;;;0.80;;
17739;SDS011;8990;33.226;-97.150;2023-03-01T07:31:48;0.43;;;0.28;;
17739;SDS011;8990;33.226;-97.150;2023-03-01T07:34:16;0.25;;;0.25;;
17739;SDS011;8990;33.226;-97.150;2023-03-01T07:36:45;0.80;;;0.73;;
17739;SDS011;8990;33.226;-97.150;2023-03-01T07:39:14;0.75;;;0.75;;
17739;SDS011;8990;33.226;-97.150;2023-03-01T07:41:44;0.40;;;0.40;;
17739;SDS011;8990;33.226;-97.150;2023-03-01T07:44:12;1.20;;;1.05;;
17739;SDS011;8990;33.226;-97.150;2023-03-01T07:46:44;0.13;;;0.13;;
17739;SDS011;8990;33.226;-97.150;2023-03-01T07:49:14;1.02;;;1.00;;
17739;SDS011;8990;33.226;-97.150;2023-03-01T07:51:44;0.98;;;0.95;;
17739;SDS011;8990;33.226;-97.150;2023-03-01T07:54:13;0.65;;;0.65;;
17739;SDS011;8990;33.226;-97.150;2023-03-01T07:56:42;1.25;;;1.15;;
17739;SDS011;8990;33.226;-97.150;2023-03-01T07:59:11;0.38;;;0.38;;
17739;SDS011;8990;33.226;-97.150;2023-03-01T08:01:40;0.40;;;0.40;;
17739;SDS011;8990;33.226;-97.150;2023-03-01T08:04:10;0.93;;;0.93;;
17739;SDS011;8990;33.226;-97.150;2023-03-01T08:06:40;1.05;;;1.05;;
17739;SDS011;8990;33.226;-97.150;2023-03-01T08:09:09;0.57;;;0.57;;
17739;SDS011;8990;33.226;-97.150;2023-03-01T08:11:38;0.65;;;0.65;;
17739;SDS011;8990;33.226;-97.150;2023-03-01T08:14:06;0.98;;;0.98;;
17739;SDS011;8990;33.226;-97.150;2023-03-01T08:16:36;1.25;;;0.70;;
17739;SDS011;8990;33.226;-97.150;2023-03-01T08:19:05;1.38;;;1.27;;
17739;SDS011;8990;33.226;-97.150;2023-03-01T08:21:36;0.68;;;0.68;;
17739;SDS011;8990;33.226;-97.150;2023-03-01T08:24:06;1.05;;;1.02;;
17739;SDS011;8990;33.226;-97.150;2023-03-01T08:26:36;0.85;;;0.85;;
17739;SDS011;8990;33.226;-97.150;2023-03-01T08:29:06;1.15;;;1.10;;
17739;SDS011;8990;33.226;-97.150;2023-03-01T08:31:35;0.57;;;0.57;;
17739;SDS011;8990;33.226;-97.150;2023-03-01T08:34:05;0.63;;;0.60;;
17739;SDS011;8990;33.226;-97.150;2023-03-01T08:36:36;1.15;;;1.05;;
17739;SDS011;8990;33.226;-97.150;2023-03-01T08:39:07;0.50;;;0.50;;
17739;SDS011;8990;33.226;-97.150;2023-03-01T08:41:37;17.45;;;1.90;;
17739;SDS011;8990;33.226;-97.150;2023-03-01T08:44:06;0.75;;;0.75;;
17739;SDS011;8990;33.226;-97.150;2023-03-01T08:46:35;1.48;;;1.38;;
17739;SDS011;8990;33.226;-97.150;2023-03-01T08:49:06;1.80;;;1.27;;
17739;SDS011;8990;33.226;-97.150;2023-03-01T08:51:38;1.58;;;1.48;;
17739;SDS011;8990;33.226;-97.150;2023-03-01T08:54:09;0.85;;;0.85;;
17739;SDS011;8990;33.226;-97.150;2023-03-01T08:56:39;0.82;;;0.82;;
17739;SDS011;8990;33.226;-97.150;2023-03-01T08:59:08;2.95;;;1.15;;
17739;SDS011;8990;33.226;-97.150;2023-03-01T09:01:38;1.10;;;1.08;;
17739;SDS011;8990;33.226;-97.150;2023-03-01T09:04:09;0.90;;;0.90;;
17739;SDS011;8990;33.226;-97.150;2023-03-01T09:06:40;1.17;;;1.15;;
17739;SDS011;8990;33.226;-97.150;2023-03-01T09:09:13;0.98;;;0.98;;
17739;SDS011;8990;33.226;-97.150;2023-03-01T09:11:43;0.43;;;0.43;;
17739;SDS011;8990;33.226;-97.150;2023-03-01T09:14:12;1.95;;;1.73;;
17739;SDS011;8990;33.226;-97.150;2023-03-01T09:16:42;2.70;;;1.58;;
17739;SDS011;8990;33.226;-97.150;2023-03-01T09:19:12;0.95;;;0.90;;
17739;SDS011;8990;33.226;-97.150;2023-03-01T09:21:43;1.08;;;1.08;;
17739;SDS011;8990;33.226;-97.150;2023-03-01T09:24:19;2.03;;;1.90;;
17739;SDS011;8990;33.226;-97.150;2023-03-01T09:26:49;1.17;;;1.10;;
17739;SDS011;8990;33.226;-97.150;2023-03-01T09:29:21;0.90;;;0.90;;
17739;SDS011;8990;33.226;-97.150;2023-03-01T09:31:50;2.03;;;1.92;;
17739;SDS011;8990;33.226;-97.150;2023-03-01T09:34:21;1.23;;;1.23;;
17739;SDS011;8990;33.226;-97.150;2023-03-01T09:36:52;1.25;;;0.93;;
17739;SDS011;8990;33.226;-97.150;2023-03-01T09:39:22;0.88;;;0.75;;
17739;SDS011;8990;33.226;-97.150;2023-03-01T09:41:53;3.83;;;1.55;;
17739;SDS011;8990;33.226;-97.150;2023-03-01T09:44:29;1.23;;;1.23;;
17739;SDS011;8990;33.226;-97.150;2023-03-01T09:47:04;1.50;;;1.42;;
17739;SDS011;8990;33.226;-97.150;2023-03-01T09:49:38;1.70;;;1.60;;
17739;SDS011;8990;33.226;-97.150;2023-03-01T09:52:19;0.88;;;0.88;;
17739;SDS011;8990;33.226;-97.150;2023-03-01T09:54:52;1.40;;;1.30;;
17739;SDS011;8990;33.226;-97.150;2023-03-01T09:57:26;0.77;;;0.77;;
17739;SDS011;8990;33.226;-97.150;2023-03-01T10:00:03;0.77;;;0.77;;
17739;SDS011;8990;33.226;-97.150;2023-03-01T10:02:58;2.05;;;1.80;;
17739;SDS011;8990;33.226;-97.150;2023-03-01T10:05:41;0.88;;;0.88;;
17739;SDS011;8990;33.226;-97.150;2023-03-01T10:08:27;1.48;;;0.73;;
17739;SDS011;8990;33.226;-97.150;2023-03-01T10:11:02;1.98;;;1.05;;
17739;SDS011;8990;33.226;-97.150;2023-03-01T10:13:34;0.63;;;0.63;;
17739;SDS011;8990;33.226;-97.150;2023-03-01T10:16:11;1.58;;;1.48;;
17739;SDS011;8990;33.226;-97.150;2023-03-01T10:18:42;1.52;;;1.42;;
17739;SDS011;8990;33.226;-97.150;2023-03-01T10:21:15;1.10;;;1.10;;
17739;SDS011;8990;33.226;-97.150;2023-03-01T10:23:47;0.98;;;0.98;;
17739;SDS011;8990;33.226;-97.150;2023-03-01T10:26:22;1.08;;;0.93;;
17739;SDS011;8990;33.226;-97.150;2023-03-01T10:29:02;1.45;;;1.45;;
17739;SDS011;8990;33.226;-97.150;2023-03-01T10:31:36;1.50;;;1.40;;
17739;SDS011;8990;33.226;-97.150;2023-03-01T10:34:13;5.38;;;1.45;;
17739;SDS011;8990;33.226;-97.150;2023-03-01T10:36:44;1.35;;;1.27;;
17739;SDS011;8990;33.226;-97.150;2023-03-01T10:39:19;0.85;;;0.85;;
17739;SDS011;8990;33.226;-97.150;2023-03-01T10:41:55;0.93;;;0.75;;
17739;SDS011;8990;33.226;-97.150;2023-03-01T10:44:36;0.80;;;0.80;;
17739;SDS011;8990;33.226;-97.150;2023-03-01T10:47:12;1.25;;;1.15;;
17739;SDS011;8990;33.226;-97.150;2023-03-01T10:49:56;2.17;;;2.05;;
17739;SDS011;8990;33.226;-97.150;2023-03-01T10:52:31;1.63;;;1.52;;
17739;SDS011;8990;33.226;-97.150;2023-03-01T10:55:04;1.60;;;1.40;;
17739;SDS011;8990;33.226;-97.150;2023-03-01T10:57:51;3.53;;;1.45;;
17739;SDS011;8990;33.226;-97.150;2023-03-01T11:00:45;0.43;;;0.43;;
17739;SDS011;8990;33.226;-97.150;2023-03-01T11:03:17;2.72;;;2.05;;
17739;SDS011;8990;33.226;-97.150;2023-03-01T11:08:48;0.90;;;0.80;;
17739;SDS011;8990;33.226;-97.150;2023-03-01T11:11:21;0.93;;;0.93;;
17739;SDS011;8990;33.226;-97.150;2023-03-01T11:13:55;2.05;;;1.50;;
17739;SDS011;8990;33.226;-97.150;2023-03-01T11:16:27;0.90;;;0.90;;
17739;SDS011;8990;33.226;-97.150;2023-03-01T11:19:01;1.77;;;1.52;;
17739;SDS011;8990;33.226;-97.150;2023-03-01T11:21:49;1.23;;;1.20;;
17739;SDS011;8990;33.226;-97.150;2023-03-01T11:24:24;1.65;;;1.58;;
17739;SDS011;8990;33.226;-97.150;2023-03-01T11:27:01;1.35;;;1.25;;
17739;SDS011;8990;33.226;-97.150;2023-03-01T11:29:35;1.40;;;1.30;;
17739;SDS011;8990;33.226;-97.150;2023-03-01T11:32:08;1.17;;;1.17;;
17739;SDS011;8990;33.226;-97.150;2023-03-01T11:34:42;0.85;;;0.85;;
17739;SDS011;8990;33.226;-97.150;2023-03-01T11:37:19;1.95;;;1.67;;
17739;SDS011;8990;33.226;-97.150;2023-03-01T11:39:59;0.85;;;0.85;;
17739;SDS011;8990;33.226;-97.150;2023-03-01T11:42:42;1.30;;;1.20;;
17739;SDS011;8990;33.226;-97.150;2023-03-01T11:45:20;7.47;;;1.35;;
17739;SDS011;8990;33.226;-97.150;2023-03-01T11:47:55;1.95;;;1.83;;
17739;SDS011;8990;33.226;-97.150;2023-03-01T11:50:35;2.35;;;1.83;;
17739;SDS011;8990;33.226;-97.150;2023-03-01T11:53:24;1.48;;;1.38;;
17739;SDS011;8990;33.226;-97.150;2023-03-01T11:56:07;1.77;;;1.17;;
17739;SDS011;8990;33.226;-97.150;2023-03-01T11:59:06;2.58;;;2.28;;
17739;SDS011;8990;33.226;-97.150;2023-03-01T12:01:51;1.30;;;1.23;;
17739;SDS011;8990;33.226;-97.150;2023-03-01T12:04:52;1.83;;;1.13;;
17739;SDS011;8990;33.226;-97.150;2023-03-01T12:07:32;1.23;;;1.17;;
17739;SDS011;8990;33.226;-97.150;2023-03-01T12:10:16;3.40;;;1.40;;
17739;SDS011;8990;33.226;-97.150;2023-03-01T12:13:05;15.27;;;1.70;;
17739;SDS011;8990;33.226;-97.150;2023-03-01T12:15:55;2.33;;;2.13;;
17739;SDS011;8990;33.226;-97.150;2023-03-01T12:18:51;1.00;;;1.00;;
17739;SDS011;8990;33.226;-97.150;2023-03-01T12:21:48;2.92;;;1.20;;
17739;SDS011;8990;33.226;-97.150;2023-03-01T12:24:45;1.67;;;1.50;;
17739;SDS011;8990;33.226;-97.150;2023-03-01T12:27:30;1.35;;;1.33;;
17739;SDS011;8990;33.226;-97.150;2023-03-01T12:30:24;2.35;;;2.15;;
17739;SDS011;8990;33.226;-97.150;2023-03-01T12:33:07;1.50;;;1.40;;
17739;SDS011;8990;33.226;-97.150;2023-03-01T12:36:10;2.22;;;2.10;;
17739;SDS011;8990;33.226;-97.150;2023-03-01T12:38:59;2.30;;;1.63;;
17739;SDS011;8990;33.226;-97.150;2023-03-01T12:41:43;1.60;;;1.10;;
17739;SDS011;8990;33.226;-97.150;2023-03-01T12:44:23;3.58;;;1.30;;
17739;SDS011;8990;33.226;-97.150;2023-03-01T12:47:05;2.42;;;1.85;;
17739;SDS011;8990;33.226;-97.150;2023-03-01T12:49:44;1.42;;;1.33;;
17739;SDS011;8990;33.226;-97.150;2023-03-01T12:52:18;1.08;;;1.08;;
17739;SDS011;8990;33.226;-97.150;2023-03-01T12:54:51;1.30;;;1.17;;
17739;SDS011;8990;33.226;-97.150;2023-03-01T12:57:26;2.05;;;1.90;;
17739;SDS011;8990;33.226;-97.150;2023-03-01T13:00:06;1.20;;;1.20;;
17739;SDS011;8990;33.226;-97.150;2023-03-01T13:02:51;1.60;;;1.50;;
17739;SDS011;8990;33.226;-97.150;2023-03-01T13:05:26;2.28;;;2.15;;
17739;SDS011;8990;33.226;-97.150;2023-03-01T13:08:08;2.50;;;2.30;;
17739;SDS011;8990;33.226;-97.150;2023-03-01T13:10:43;1.42;;;1.33;;
17739;SDS011;8990;33.226;-97.150;2023-03-01T13:13:21;1.52;;;1.42;;
17739;SDS011;8990;33.226;-97.150;2023-03-01T13:15:51;1.80;;;1.70;;
17739;SDS011;8990;33.226;-97.150;2023-03-01T13:18:28;1.08;;;1.08;;
17739;SDS011;8990;33.226;-97.150;2023-03-01T13:21:03;4.03;;;2.05;;
17739;SDS011;8990;33.226;-97.150;2023-03-01T13:23:34;1.98;;;1.88;;
17739;SDS011;8990;33.226;-97.150;2023-03-01T13:26:08;1.50;;;1.40;;
17739;SDS011;8990;33.226;-97.150;2023-03-01T13:28:53;0.85;;;0.85;;
17739;SDS011;8990;33.226;-97.150;2023-03-01T13:34:40;2.20;;;2.00;;
17739;SDS011;8990;33.226;-97.150;2023-03-01T13:37:26;1.33;;;1.33;;
17739;SDS011;8990;33.226;-97.150;2023-03-01T13:43:27;1.52;;;1.42;;
17739;SDS011;8990;33.226;-97.150;2023-03-01T13:45:58;1.25;;;1.25;;
17739;SDS011;8990;33.226;-97.150;2023-03-01T13:48:29;1.40;;;1.40;;
17739;SDS011;8990;33.226;-97.150;2023-03-01T13:50:59;1.60;;;1.50;;
17739;SDS011;8990;33.226;-97.150;2023-03-01T13:53:33;1.60;;;1.50;;
17739;SDS011;8990;33.226;-97.150;2023-03-01T13:56:07;0.73;;;0.73;;
17739;SDS011;8990;33.226;-97.150;2023-03-01T13:58:46;1.85;;;1.63;;
17739;SDS011;8990;33.226;-97.150;2023-03-01T14:01:21;3.38;;;2.25;;
17739;SDS011;8990;33.226;-97.150;2023-03-01T14:03:53;1.85;;;1.75;;
17739;SDS011;8990;33.226;-97.150;2023-03-01T14:06:23;1.63;;;1.13;;
17739;SDS011;8990;33.226;-97.150;2023-03-01T14:09:02;4.53;;;3.38;;
17739;SDS011;8990;33.226;-97.150;2023-03-01T14:11:35;1.75;;;0.98;;
17739;SDS011;8990;33.226;-97.150;2023-03-01T14:20:18;2.03;;;1.92;;
17739;SDS011;8990;33.226;-97.150;2023-03-01T14:22:49;2.00;;;1.25;;
17739;SDS011;8990;33.226;-97.150;2023-03-01T14:25:23;1.08;;;1.05;;
17739;SDS011;8990;33.226;-97.150;2023-03-01T14:27:58;2.08;;;1.65;;
17739;SDS011;8990;33.226;-97.150;2023-03-01T14:30:32;0.90;;;0.90;;
17739;SDS011;8990;33.226;-97.150;2023-03-01T14:33:05;1.85;;;1.73;;
17739;SDS011;8990;33.226;-97.150;2023-03-01T14:35:51;4.28;;;1.30;;
17739;SDS011;8990;33.226;-97.150;2023-03-01T14:38:22;1.42;;;1.42;;
17739;SDS011;8990;33.226;-97.150;2023-03-01T14:40:59;2.78;;;1.50;;
17739;SDS011;8990;33.226;-97.150;2023-03-01T14:43:31;2.15;;;1.95;;
17739;SDS011;8990;33.226;-97.150;2023-03-01T14:46:00;17.13;;;2.03;;
17739;SDS011;8990;33.226;-97.150;2023-03-01T14:48:29;1.48;;;1.38;;
17739;SDS011;8990;33.226;-97.150;2023-03-01T14:51:00;3.50;;;2.45;;
17739;SDS011;8990;33.226;-97.150;2023-03-01T14:53:29;2.22;;;1.95;;
17739;SDS011;8990;33.226;-97.150;2023-03-01T14:56:01;1.92;;;1.52;;
17739;SDS011;8990;33.226;-97.150;2023-03-01T14:58:31;1.02;;;1.00;;
17739;SDS011;8990;33.226;-97.150;2023-03-01T15:01:01;1.10;;;1.10;;
17739;SDS011;8990;33.226;-97.150;2023-03-01T15:03:32;1.92;;;1.27;;
17739;SDS011;8990;33.226;-97.150;2023-03-01T15:06:05;1.92;;;1.25;;
17739;SDS011;8990;33.226;-97.150;2023-03-01T15:08:36;2.25;;;2.05;;
17739;SDS011;8990;33.226;-97.150;2023-03-01T15:11:18;2.00;;;1.90;;
17739;SDS011;8990;33.226;-97.150;2023-03-01T15:13:50;1.88;;;1.77;;
17739;SDS011;8990;33.226;-97.150;2023-03-01T15:16:20;1.52;;;1.42;;
17739;SDS011;8990;33.226;-97.150;2023-03-01T15:18:52;1.55;;;1.45;;
17739;SDS011;8990;33.226;-97.150;2023-03-01T15:21:25;1.90;;;1.80;;
17739;SDS011;8990;33.226;-97.150;2023-03-01T15:24:05;0.98;;;0.98;;